createdAt,value
2022-09-27T00:01:10.187Z,75352.53
2022-09-27T00:03:42.624Z,75356.59
2022-09-27T00:06:14.476Z,75352.53
2022-09-27T00:08:41.704Z,75348.47
2022-09-27T00:11:16.180Z,75348.47
2022-09-27T00:13:43.341Z,75344.44
2022-09-27T00:16:11.164Z,75346.44
2022-09-27T00:18:38.118Z,75344.44
2022-09-27T00:21:12.222Z,75340.38
2022-09-27T00:23:40.209Z,75336.31
2022-09-27T00:26:09.071Z,75336.31
2022-09-27T00:28:35.997Z,75338.34
2022-09-27T00:31:03.854Z,75340.38
2022-09-27T00:33:31.088Z,75340.38
2022-09-27T00:36:05.837Z,75334.28
2022-09-27T00:38:33.282Z,75324.16
2022-09-27T00:41:00.299Z,75320.13
2022-09-27T00:44:08.186Z,75320.13
2022-09-27T00:46:41.827Z,75320.13
2022-09-27T00:49:22.646Z,75316.06
2022-09-27T00:51:56.672Z,75312.00
2022-09-27T00:54:26.668Z,75312.00
2022-09-27T00:56:54.128Z,75312.00
2022-09-27T00:59:37.444Z,75312.00
2022-09-27T01:02:06.861Z,75316.06
2022-09-27T01:04:36.980Z,75316.06
2022-09-27T01:07:03.966Z,75318.09
2022-09-27T01:09:31.700Z,75332.28
2022-09-27T01:12:36.375Z,75328.22
2022-09-27T01:15:40.482Z,75332.28
2022-09-27T01:18:13.728Z,75332.28
2022-09-27T01:21:12.112Z,75340.38
2022-09-27T01:24:12.450Z,75340.38
2022-09-27T01:27:01.623Z,75344.44
2022-09-27T01:29:57.054Z,75360.63
2022-09-27T01:32:36.687Z,75362.66
2022-09-27T01:35:23.425Z,75364.69
2022-09-27T01:38:10.294Z,75356.59
2022-09-27T01:40:58.194Z,75356.59
2022-09-27T01:44:13.093Z,75348.47
2022-09-27T01:46:57.071Z,75340.38
2022-09-27T01:49:55.951Z,75338.34
2022-09-27T01:52:31.417Z,75332.28
2022-09-27T01:55:04.606Z,75330.25
2022-09-27T01:57:57.923Z,75334.28
2022-09-27T02:00:26.973Z,75358.63
2022-09-27T02:03:02.130Z,75332.28
2022-09-27T02:05:43.181Z,75332.28
2022-09-27T02:08:42.151Z,75328.22
2022-09-27T02:11:22.173Z,75328.22
2022-09-27T02:14:06.516Z,75324.16
2022-09-27T02:17:11.597Z,75328.22
2022-09-27T02:19:52.455Z,75320.13
2022-09-27T02:22:38.669Z,75320.13
2022-09-27T02:25:06.564Z,75316.06
2022-09-27T02:28:03.904Z,75312.00
2022-09-27T02:30:34.973Z,75312.00
2022-09-27T02:33:15.844Z,75320.13
2022-09-27T02:35:43.242Z,75324.16
2022-09-27T02:38:10.885Z,75320.13
2022-09-27T02:40:44.935Z,75314.03
2022-09-27T02:43:15.019Z,75314.03
2022-09-27T02:46:01.628Z,75303.91
2022-09-27T02:48:52.316Z,75303.91
2022-09-27T02:51:35.979Z,75299.84
2022-09-27T02:54:08.904Z,75299.84
2022-09-27T02:57:22.437Z,75299.84
2022-09-27T03:00:18.307Z,75285.66
2022-09-27T03:03:08.474Z,75279.59
2022-09-27T03:05:49.280Z,75279.59
2022-09-27T03:08:18.602Z,75279.59
2022-09-27T03:10:45.884Z,75279.59
2022-09-27T03:13:14.257Z,75283.63
2022-09-27T03:15:42.436Z,75287.69
2022-09-27T03:18:18.586Z,75287.69
2022-09-27T03:20:46.569Z,75287.69
2022-09-27T03:23:21.060Z,75285.66
2022-09-27T03:25:50.035Z,75285.66
2022-09-27T03:28:17.903Z,75301.88
2022-09-27T03:30:46.973Z,75291.75
2022-09-27T03:33:28.149Z,75291.75
2022-09-27T03:36:00.301Z,75287.69
2022-09-27T03:38:27.381Z,75291.75
2022-09-27T03:40:54.566Z,75287.69
2022-09-27T03:43:21.486Z,75287.69
2022-09-27T03:45:48.783Z,75283.63
2022-09-27T03:48:17.588Z,75275.53
2022-09-27T03:50:44.453Z,75269.44
2022-09-27T03:53:11.316Z,75271.47
2022-09-27T03:55:38.555Z,75267.44
2022-09-27T03:58:06.418Z,75263.38
2022-09-27T04:00:39.219Z,75259.31
2022-09-27T04:03:06.781Z,75255.25
2022-09-27T04:05:40.145Z,75251.22
2022-09-27T04:08:12.086Z,75255.25
2022-09-27T04:10:39.021Z,75255.25
2022-09-27T04:13:06.299Z,75251.22
2022-09-27T04:15:44.453Z,75247.16
2022-09-27T04:18:31.485Z,75249.19
2022-09-27T04:21:35.393Z,75251.22
2022-09-27T04:24:02.693Z,75247.16
2022-09-27T04:26:29.829Z,75249.19
2022-09-27T04:29:04.003Z,75239.06
2022-09-27T04:31:34.120Z,75245.13
2022-09-27T04:34:11.155Z,75247.16
2022-09-27T04:36:40.367Z,75247.16
2022-09-27T04:39:10.447Z,75247.16
2022-09-27T04:41:41.425Z,75243.09
2022-09-27T04:44:08.305Z,75257.28
2022-09-27T04:46:35.424Z,75259.31
2022-09-27T04:49:03.514Z,75259.31
2022-09-27T04:51:32.847Z,75251.22
2022-09-27T04:54:00.718Z,75259.31
2022-09-27T04:56:30.771Z,75259.31
2022-09-27T04:58:58.827Z,75269.44
2022-09-27T05:01:25.821Z,75263.38
2022-09-27T05:04:13.065Z,75267.44
2022-09-27T05:06:43.603Z,75271.47
2022-09-27T05:09:19.868Z,75279.59
2022-09-27T05:11:49.823Z,75295.78
2022-09-27T05:14:17.137Z,75275.53
2022-09-27T05:16:55.483Z,75273.50
2022-09-27T05:19:42.080Z,75263.38
2022-09-27T05:22:19.330Z,75267.44
2022-09-27T05:24:47.312Z,75275.53
2022-09-27T05:27:18.549Z,75279.59
2022-09-27T05:29:47.134Z,75277.56
2022-09-27T05:32:19.656Z,75267.44
2022-09-27T05:34:54.295Z,75267.44
2022-09-27T05:37:21.587Z,75259.31
2022-09-27T05:39:50.030Z,75255.25
2022-09-27T05:42:19.084Z,75257.28
2022-09-27T05:44:47.669Z,75275.53
2022-09-27T05:47:16.008Z,75267.44
2022-09-27T05:49:43.292Z,75265.41
2022-09-27T05:52:15.155Z,75279.59
2022-09-27T05:54:44.066Z,75275.53
2022-09-27T05:57:11.155Z,75275.53
2022-09-27T05:59:43.980Z,75279.59
2022-09-27T06:02:37.302Z,75279.59
2022-09-27T06:05:24.265Z,75287.69
2022-09-27T06:08:34.677Z,75295.78
2022-09-27T06:11:06.924Z,75295.78
2022-09-27T06:13:36.409Z,75299.84
2022-09-27T06:16:04.341Z,75295.78
2022-09-27T06:18:32.680Z,75299.84
2022-09-27T06:21:01.545Z,75307.94
2022-09-27T06:23:29.348Z,75312.00
2022-09-27T06:26:01.869Z,75322.13
2022-09-27T06:28:41.118Z,75316.06
2022-09-27T06:31:09.587Z,75324.16
2022-09-27T06:33:47.823Z,75320.13
2022-09-27T06:38:42.338Z,75320.13
2022-09-27T06:41:20.078Z,75314.03
2022-09-27T06:44:05.602Z,75297.81
2022-09-27T06:46:32.990Z,75289.72
2022-09-27T06:49:12.080Z,75279.59
2022-09-27T06:51:40.792Z,75271.47
2022-09-27T06:54:07.820Z,75259.31
2022-09-27T06:56:35.071Z,75261.34
2022-09-27T06:59:20.654Z,75259.31
2022-09-27T07:01:52.703Z,75279.59
2022-09-27T07:04:29.107Z,75279.59
2022-09-27T07:07:02.296Z,75289.72
2022-09-27T07:09:33.371Z,75291.75
2022-09-27T07:12:00.952Z,75291.75
2022-09-27T07:14:27.986Z,75295.78
2022-09-27T07:16:55.947Z,75295.78
2022-09-27T07:19:24.298Z,75295.78
2022-09-27T07:21:52.595Z,75291.75
2022-09-27T07:24:20.234Z,75279.59
2022-09-27T07:26:48.193Z,75275.53
2022-09-27T07:29:17.259Z,75263.38
2022-09-27T07:31:44.665Z,75255.25
2022-09-27T07:34:12.442Z,75257.28
2022-09-27T07:36:40.104Z,75259.31
2022-09-27T07:39:09.937Z,75253.25
2022-09-27T07:41:36.786Z,75259.31
2022-09-27T07:44:05.068Z,75251.22
2022-09-27T07:46:34.931Z,75255.25
2022-09-27T07:49:17.731Z,75239.06
2022-09-27T07:52:01.276Z,75239.06
2022-09-27T07:55:07.343Z,75230.94
2022-09-27T07:57:51.087Z,75235.00
2022-09-27T08:00:21.957Z,75226.91
2022-09-27T08:02:49.056Z,75235.00
2022-09-27T08:05:16.084Z,75230.94
2022-09-27T08:07:43.392Z,75226.91
2022-09-27T08:10:11.577Z,75218.78
2022-09-27T08:12:38.965Z,75210.69
2022-09-27T08:15:06.279Z,75210.69
2022-09-27T08:17:33.572Z,75198.53
2022-09-27T08:20:27.769Z,75194.47
2022-09-27T08:23:19.015Z,75216.78
2022-09-27T08:25:54.767Z,75194.47
2022-09-27T08:28:33.869Z,75206.63
2022-09-27T08:31:05.386Z,75204.63
2022-09-27T08:33:35.809Z,75190.44
2022-09-27T08:36:13.032Z,75178.28
2022-09-27T08:38:41.134Z,75174.22
2022-09-27T08:41:40.687Z,75174.22
2022-09-27T08:44:35.156Z,75162.06
2022-09-27T08:47:23.247Z,75166.09
2022-09-27T08:49:56.893Z,75153.94
2022-09-27T08:52:30.415Z,75153.94
2022-09-27T08:55:03.568Z,75153.94
2022-09-27T08:57:31.322Z,75147.88
2022-09-27T09:00:07.247Z,75141.78
2022-09-27T09:02:36.372Z,75149.91
2022-09-27T09:05:13.313Z,75153.94
2022-09-27T09:07:43.542Z,75149.91
2022-09-27T09:11:07.304Z,75141.78
2022-09-27T09:13:51.748Z,75127.63
2022-09-27T09:16:32.738Z,75119.50
2022-09-27T09:19:37.447Z,75107.34
2022-09-27T09:23:00.382Z,75081.00
2022-09-27T09:25:55.038Z,75085.06
2022-09-27T09:28:39.852Z,75078.97
2022-09-27T09:31:25.362Z,75064.81
2022-09-27T09:33:56.963Z,75066.81
2022-09-27T09:36:31.175Z,75054.66
2022-09-27T09:39:39.080Z,75052.66
2022-09-27T09:42:24.469Z,75040.47
2022-09-27T09:44:55.609Z,75054.66
2022-09-27T09:47:42.456Z,75060.75
2022-09-27T09:50:56.250Z,75052.66
2022-09-27T09:53:40.023Z,75036.44
2022-09-27T09:56:15.672Z,75036.44
2022-09-27T09:58:56.015Z,75030.34
2022-09-27T10:01:40.540Z,75020.22
2022-09-27T10:04:18.342Z,75004.00
2022-09-27T10:06:45.523Z,74997.94
2022-09-27T10:09:15.934Z,74999.97
2022-09-27T10:11:49.791Z,75004.00
2022-09-27T10:14:38.545Z,75004.00
2022-09-27T10:17:14.639Z,75028.31
2022-09-27T10:19:42.951Z,75032.38
2022-09-27T10:22:18.802Z,75040.47
2022-09-27T10:25:04.428Z,75038.47
2022-09-27T10:27:47.333Z,75028.31
2022-09-27T10:30:33.609Z,75020.22
2022-09-27T10:33:16.281Z,75036.44
2022-09-27T10:35:51.049Z,75044.53
2022-09-27T10:38:35.784Z,75040.47
2022-09-27T10:41:38.286Z,75036.44
2022-09-27T10:44:15.683Z,75032.38
2022-09-27T10:46:50.555Z,75012.13
2022-09-27T10:50:04.042Z,74999.97
2022-09-27T10:52:44.190Z,74995.91
2022-09-27T10:55:26.135Z,75012.13
2022-09-27T10:57:56.213Z,75008.06
2022-09-27T11:00:30.022Z,75012.13
2022-09-27T11:03:01.656Z,75006.03
2022-09-27T11:05:35.579Z,74995.91
2022-09-27T11:08:19.679Z,74991.84
2022-09-27T11:11:04.157Z,74971.59
2022-09-27T11:13:33.813Z,74967.53
2022-09-27T11:16:04.904Z,74967.53
2022-09-27T11:19:14.572Z,74951.34
2022-09-27T11:22:08.473Z,74939.19
2022-09-27T11:25:06.393Z,74939.19
2022-09-27T11:28:02.606Z,74943.22
2022-09-27T11:30:51.553Z,74967.53
2022-09-27T11:34:12.162Z,74959.44
2022-09-27T11:36:57.572Z,74947.28
2022-09-27T11:40:00.272Z,74941.19
2022-09-27T11:42:45.146Z,74929.03
2022-09-27T11:45:41.155Z,74925.00
2022-09-27T11:48:32.738Z,74931.06
2022-09-27T11:51:14.870Z,74927.03
2022-09-27T11:53:44.575Z,74937.16
2022-09-27T11:56:44.142Z,74927.03
2022-09-27T11:59:32.895Z,74929.03
2022-09-27T12:02:13.677Z,74922.97
2022-09-27T12:05:00.706Z,74910.81
2022-09-27T12:07:53.134Z,74894.59
2022-09-27T12:10:21.802Z,74888.53
2022-09-27T12:12:53.943Z,74874.34
2022-09-27T12:15:24.203Z,74862.19
2022-09-27T12:17:56.560Z,74854.09
2022-09-27T12:20:35.195Z,74862.19
2022-09-27T12:23:20.344Z,74854.09
2022-09-27T12:26:06.454Z,74841.94
2022-09-27T12:28:42.885Z,74821.66
2022-09-27T12:31:30.473Z,74829.78
2022-09-27T12:34:06.695Z,74845.97
2022-09-27T12:36:38.824Z,74845.97
2022-09-27T12:39:22.433Z,74827.75
2022-09-27T12:42:06.156Z,74813.56
2022-09-27T12:44:46.037Z,74789.25
2022-09-27T12:47:58.742Z,74773.03
2022-09-27T12:50:35.223Z,74762.91
2022-09-27T12:53:12.198Z,74781.16
2022-09-27T12:56:10.858Z,74764.94
2022-09-27T12:58:59.213Z,74760.88
2022-09-27T13:01:53.927Z,74760.88
2022-09-27T13:04:23.986Z,74775.06
2022-09-27T13:07:17.731Z,74785.19
2022-09-27T13:10:15.044Z,74769.00
2022-09-27T13:12:50.201Z,74760.88
2022-09-27T13:15:21.849Z,74740.63
2022-09-27T13:17:50.985Z,74736.56
2022-09-27T13:20:36.332Z,74708.22
2022-09-27T13:23:19.770Z,74728.47
2022-09-27T13:26:03.582Z,74724.41
2022-09-27T13:28:47.517Z,74736.56
2022-09-27T13:31:56.214Z,74734.53
2022-09-27T13:34:39.563Z,74728.47
2022-09-27T13:37:26.125Z,74728.47
2022-09-27T13:40:15.268Z,74716.31
2022-09-27T13:43:13.373Z,74716.31
2022-09-27T13:46:08.612Z,74742.66
2022-09-27T13:48:45.871Z,74728.47
2022-09-27T13:51:39.930Z,74716.31
2022-09-27T13:54:45.542Z,74700.09
2022-09-27T13:57:34.671Z,74679.84
2022-09-27T14:00:06.303Z,74671.75
2022-09-27T14:03:07.805Z,74671.75
2022-09-27T14:05:41.529Z,74683.91
2022-09-27T14:08:25.035Z,74687.94
2022-09-27T14:10:54.271Z,74692.00
2022-09-27T14:13:24.439Z,74687.94
2022-09-27T14:16:05.033Z,74692.00
2022-09-27T14:18:37.641Z,74687.94
2022-09-27T14:21:36.253Z,74683.91
2022-09-27T14:24:28.635Z,74696.06
2022-09-27T14:27:21.644Z,74692.00
2022-09-27T14:29:58.278Z,74706.19
2022-09-27T14:32:34.143Z,74708.22
2022-09-27T14:35:37.760Z,74712.25
2022-09-27T14:38:33.087Z,74704.16
2022-09-27T14:41:03.612Z,74708.22
2022-09-27T14:43:33.054Z,74704.16
2022-09-27T14:46:02.778Z,74710.22
2022-09-27T14:48:36.810Z,74716.31
2022-09-27T14:51:19.408Z,74728.47
2022-09-27T14:53:49.895Z,74726.44
2022-09-27T14:56:22.669Z,74728.47
2022-09-27T14:58:56.772Z,74724.41
2022-09-27T15:01:24.466Z,74728.47
2022-09-27T15:03:53.684Z,74728.47
2022-09-27T15:06:21.469Z,74732.53
2022-09-27T15:08:51.521Z,74734.53
2022-09-27T15:11:19.546Z,74744.69
2022-09-27T15:13:51.802Z,74754.81
2022-09-27T15:16:22.783Z,74756.84
2022-09-27T15:19:17.463Z,74756.84
2022-09-27T15:21:45.784Z,74760.88
2022-09-27T15:24:39.953Z,74764.94
2022-09-27T15:27:22.781Z,74760.88
2022-09-27T15:29:55.860Z,74773.03
2022-09-27T15:32:25.290Z,74773.03
2022-09-27T15:34:53.731Z,74781.16
2022-09-27T15:37:47.205Z,74775.06
2022-09-27T15:40:21.119Z,74769.00
2022-09-27T15:42:59.620Z,74760.88
2022-09-27T15:45:36.183Z,74758.84
2022-09-27T15:48:21.854Z,74748.72
2022-09-27T15:50:50.145Z,74748.72
2022-09-27T15:53:35.322Z,74760.88
2022-09-27T15:56:06.788Z,74766.97
2022-09-27T15:58:35.098Z,74781.16
2022-09-27T16:01:04.121Z,74783.16
2022-09-27T16:03:32.193Z,74783.16
2022-09-27T16:06:02.171Z,74795.31
2022-09-27T16:08:29.435Z,74789.25
2022-09-27T16:11:00.782Z,74797.34
2022-09-27T16:13:32.718Z,74799.38
2022-09-27T16:16:02.377Z,74805.47
2022-09-27T16:18:30.757Z,74819.63
2022-09-27T16:20:59.191Z,74821.66
2022-09-27T16:23:26.447Z,74829.78
2022-09-27T16:25:53.707Z,74841.94
2022-09-27T16:28:20.699Z,74850.03
2022-09-27T16:30:48.334Z,74860.16
2022-09-27T16:33:15.547Z,74872.31
2022-09-27T16:35:43.029Z,74870.28
2022-09-27T16:38:10.289Z,74874.34
2022-09-27T16:40:37.978Z,74874.34
2022-09-27T16:43:07.655Z,74874.34
2022-09-27T16:45:36.588Z,74878.41
2022-09-27T16:48:03.987Z,74884.47
2022-09-27T16:50:49.437Z,74882.44
2022-09-27T16:53:16.772Z,74874.34
2022-09-27T16:55:43.900Z,74882.44
2022-09-27T16:58:10.820Z,74890.56
2022-09-27T17:00:38.652Z,74902.72
2022-09-27T17:03:06.863Z,74906.75
2022-09-27T17:05:33.701Z,74914.88
2022-09-27T17:08:01.483Z,74910.81
2022-09-27T17:10:28.811Z,74920.94
2022-09-27T17:12:57.867Z,74927.03
2022-09-27T17:15:25.373Z,74931.06
2022-09-27T17:17:52.468Z,74935.13
2022-09-27T17:20:19.589Z,74947.28
2022-09-27T17:22:47.942Z,74951.34
2022-09-27T17:25:15.314Z,74955.38
2022-09-27T17:27:42.488Z,74955.38
2022-09-27T17:30:10.390Z,74963.50
2022-09-27T17:32:38.713Z,74963.50
2022-09-27T17:35:06.784Z,74971.59
2022-09-27T17:37:34.179Z,74979.69
2022-09-27T17:40:01.969Z,74979.69
2022-09-27T17:42:28.991Z,74999.97
2022-09-27T17:44:55.980Z,74995.91
2022-09-27T17:47:41.871Z,75004.00
2022-09-27T17:50:25.913Z,75016.16
2022-09-27T17:52:56.699Z,75016.16
2022-09-27T17:55:24.981Z,75022.25
2022-09-27T17:57:52.412Z,75020.22
2022-09-27T18:00:20.617Z,75016.16
2022-09-27T18:02:48.239Z,75016.16
2022-09-27T18:05:15.827Z,75016.16
2022-09-27T18:07:43.224Z,75016.16
2022-09-27T18:10:10.584Z,75026.31
2022-09-27T18:12:38.628Z,75030.34
2022-09-27T18:15:06.619Z,75026.31
2022-09-27T18:17:33.801Z,75028.31
2022-09-27T18:20:02.478Z,75026.31
2022-09-27T18:22:31.273Z,75032.38
2022-09-27T18:24:58.799Z,75032.38
2022-09-27T18:27:26.207Z,75036.44
2022-09-27T18:29:54.314Z,75036.44
2022-09-27T18:32:21.446Z,75036.44
2022-09-27T18:34:48.592Z,75032.38
2022-09-27T18:37:16.003Z,75034.41
2022-09-27T18:39:43.077Z,75036.44
2022-09-27T18:42:10.308Z,75038.47
2022-09-27T18:44:37.651Z,75028.31
2022-09-27T18:47:04.675Z,75028.31
2022-09-27T18:49:34.201Z,75028.31
2022-09-27T18:52:02.900Z,75028.31
2022-09-27T18:54:30.300Z,75034.41
2022-09-27T18:56:59.130Z,75040.47
2022-09-27T18:59:26.512Z,75036.44
2022-09-27T19:01:53.588Z,75032.38
2022-09-27T19:04:25.886Z,75028.31
2022-09-27T19:06:55.863Z,75034.41
2022-09-27T19:09:23.543Z,75032.38
2022-09-27T19:11:51.220Z,75024.28
2022-09-27T19:14:21.356Z,75020.22
2022-09-27T19:16:49.602Z,75016.16
2022-09-27T19:19:17.823Z,75020.22
2022-09-27T19:21:45.388Z,75010.09
2022-09-27T19:24:14.170Z,75016.16
2022-09-27T19:26:41.689Z,75008.06
2022-09-27T19:29:08.860Z,75006.03
2022-09-27T19:31:36.112Z,75008.06
2022-09-27T19:34:03.304Z,75016.16
2022-09-27T19:36:30.741Z,75012.13
2022-09-27T19:39:00.417Z,75012.13
2022-09-27T19:41:27.664Z,75012.13
2022-09-27T19:43:56.326Z,75016.16
2022-09-27T19:46:24.826Z,75028.31
2022-09-27T19:48:52.418Z,75016.16
2022-09-27T19:51:22.627Z,75024.28
2022-09-27T19:53:50.594Z,75012.13
2022-09-27T19:56:18.498Z,75012.13
2022-09-27T19:58:46.050Z,75012.13
2022-09-27T20:01:16.009Z,75004.00
2022-09-27T20:03:44.380Z,75004.00
2022-09-27T20:06:14.663Z,75008.06
2022-09-27T20:08:43.072Z,75004.00
2022-09-27T20:11:13.345Z,74991.84
2022-09-27T20:13:41.192Z,74995.91
2022-09-27T20:16:19.865Z,74987.81
2022-09-27T20:18:50.715Z,74991.84
2022-09-27T20:21:18.734Z,74991.84
2022-09-27T20:23:49.597Z,74993.88
2022-09-27T20:26:18.932Z,74995.91
2022-09-27T20:28:48.214Z,74991.84
2022-09-27T20:31:17.582Z,74987.81
2022-09-27T20:33:46.827Z,74987.81
2022-09-27T20:36:23.120Z,74989.84
2022-09-27T20:38:52.652Z,74991.84
2022-09-27T20:41:22.799Z,75008.06
2022-09-27T20:43:55.566Z,75008.06
2022-09-27T20:46:24.807Z,75012.13
2022-09-27T20:48:57.062Z,75024.28
2022-09-27T20:51:24.802Z,75028.31
2022-09-27T20:53:52.002Z,75036.44
2022-09-27T20:56:22.155Z,75042.50
2022-09-27T20:58:51.490Z,75044.53
2022-09-27T21:01:19.319Z,75042.50
2022-09-27T21:03:46.499Z,75048.59
2022-09-27T21:06:14.001Z,75044.53
2022-09-27T21:08:41.157Z,75046.56
2022-09-27T21:11:13.831Z,75046.56
2022-09-27T21:13:42.511Z,75040.47
2022-09-27T21:16:14.254Z,75048.59
2022-09-27T21:18:41.690Z,75048.59
2022-09-27T21:21:11.223Z,75054.66
2022-09-27T21:23:44.098Z,75052.66
2022-09-27T21:26:16.644Z,75060.75
2022-09-27T21:28:48.576Z,75085.06
2022-09-27T21:31:23.040Z,75072.91
2022-09-27T21:33:54.080Z,75072.91
2022-09-27T21:36:26.434Z,75068.84
2022-09-27T21:38:53.872Z,75066.81
2022-09-27T21:41:20.856Z,75072.91
2022-09-27T21:43:49.003Z,75068.84
2022-09-27T21:46:22.634Z,75064.81
2022-09-27T21:48:52.464Z,75060.75
2022-09-27T21:51:27.024Z,75068.84
2022-09-27T21:54:00.651Z,75062.78
2022-09-27T21:56:30.394Z,75060.75
2022-09-27T21:58:58.055Z,75052.66
2022-09-27T22:01:29.558Z,75050.63
2022-09-27T22:03:57.149Z,75040.47
2022-09-27T22:06:36.595Z,75036.44
2022-09-27T22:09:06.940Z,75028.31
2022-09-27T22:11:37.790Z,75032.38
2022-09-27T22:14:06.914Z,75036.44
2022-09-27T22:16:33.880Z,75036.44
2022-09-27T22:19:01.102Z,75036.44
2022-09-27T22:21:33.114Z,75036.44
2022-09-27T22:24:18.794Z,75036.44
2022-09-27T22:26:50.803Z,75028.31
2022-09-27T22:29:17.964Z,75024.28
2022-09-27T22:31:44.965Z,75012.13
2022-09-27T22:34:18.317Z,75006.03
2022-09-27T22:36:45.371Z,75006.03
2022-09-27T22:39:12.530Z,74995.91
2022-09-27T22:41:39.646Z,74995.91
2022-09-27T22:44:07.794Z,74991.84
2022-09-27T22:46:35.144Z,74991.84
2022-09-27T22:49:02.321Z,74987.81
2022-09-27T22:51:29.389Z,74979.69
2022-09-27T22:53:56.223Z,74971.59
2022-09-27T22:56:23.637Z,74975.66
2022-09-27T22:58:50.640Z,74967.53
2022-09-27T23:01:20.249Z,74967.53
2022-09-27T23:03:49.564Z,74963.50
2022-09-27T23:06:18.878Z,74967.53
2022-09-27T23:08:45.718Z,74959.44
2022-09-27T23:11:20.620Z,74959.44
2022-09-27T23:13:48.912Z,74963.50
2022-09-27T23:16:19.351Z,74961.47
2022-09-27T23:18:47.871Z,74961.47
2022-09-27T23:21:16.125Z,74959.44
2022-09-27T23:23:45.214Z,74971.59
2022-09-27T23:26:14.987Z,74979.69
2022-09-27T23:28:42.007Z,74975.66
2022-09-27T23:31:12.011Z,74987.81
2022-09-27T23:33:41.303Z,74991.84
2022-09-27T23:36:12.190Z,74991.84
2022-09-27T23:38:41.059Z,74991.84
2022-09-27T23:41:08.462Z,74987.81
2022-09-27T23:43:36.393Z,74987.81
2022-09-27T23:46:05.985Z,74975.66
2022-09-27T23:48:36.329Z,74973.63
2022-09-27T23:51:05.762Z,74979.69
2022-09-27T23:53:33.143Z,74995.91
2022-09-27T23:56:02.093Z,74991.84
2022-09-27T23:58:36.073Z,74983.75
